地図

経路データ

SID SEASON NUMBER BASIN SUBBASIN NAME ISO_TIME NATURE LAT LON WMO_WIND WMO_PRES WMO_AGENCY TRACK_TYPE DIST2LAND LANDFALL IFLAG USA_AGENCY USA_ATCF_ID USA_LAT USA_LON USA_RECORD USA_STATUS USA_WIND USA_PRES USA_SSHS USA_R34_NE USA_R34_SE USA_R34_SW USA_R34_NW USA_R50_NE USA_R50_SE USA_R50_SW USA_R50_NW USA_R64_NE USA_R64_SE USA_R64_SW USA_R64_NW USA_POCI USA_ROCI USA_RMW USA_EYE TOKYO_LAT TOKYO_LON TOKYO_GRADE TOKYO_WIND TOKYO_PRES TOKYO_R50_DIR TOKYO_R50_LONG TOKYO_R50_SHORT TOKYO_R30_DIR TOKYO_R30_LONG TOKYO_R30_SHORT TOKYO_LAND CMA_LAT CMA_LON CMA_CAT CMA_WIND CMA_PRES HKO_LAT HKO_LON HKO_CAT HKO_WIND HKO_PRES NEWDELHI_LAT NEWDELHI_LON NEWDELHI_GRADE NEWDELHI_WIND NEWDELHI_PRES NEWDELHI_CI NEWDELHI_DP NEWDELHI_POCI REUNION_LAT REUNION_LON REUNION_TYPE REUNION_WIND REUNION_PRES REUNION_TNUM REUNION_CI REUNION_RMW REUNION_R34_NE REUNION_R34_SE REUNION_R34_SW REUNION_R34_NW REUNION_R50_NE REUNION_R50_SE REUNION_R50_SW REUNION_R50_NW REUNION_R64_NE REUNION_R64_SE REUNION_R64_SW REUNION_R64_NW BOM_LAT BOM_LON BOM_TYPE BOM_WIND BOM_PRES BOM_TNUM BOM_CI BOM_RMW BOM_R34_NE BOM_R34_SE BOM_R34_SW BOM_R34_NW BOM_R50_NE BOM_R50_SE BOM_R50_SW BOM_R50_NW BOM_R64_NE BOM_R64_SE BOM_R64_SW BOM_R64_NW BOM_ROCI BOM_POCI BOM_EYE BOM_POS_METHOD BOM_PRES_METHOD NADI_LAT NADI_LON NADI_CAT NADI_WIND NADI_PRES WELLINGTON_LAT WELLINGTON_LON WELLINGTON_WIND WELLINGTON_PRES DS824_LAT DS824_LON DS824_STAGE DS824_WIND DS824_PRES TD9636_LAT TD9636_LON TD9636_STAGE TD9636_WIND TD9636_PRES TD9635_LAT TD9635_LON TD9635_WIND TD9635_PRES TD9635_ROCI NEUMANN_LAT NEUMANN_LON NEUMANN_CLASS NEUMANN_WIND NEUMANN_PRES MLC_LAT MLC_LON MLC_CLASS MLC_WIND MLC_PRES USA_GUST BOM_GUST BOM_GUST_PER REUNION_GUST REUNION_GUST_PER USA_SEAHGT USA_SEARAD_NE USA_SEARAD_SE USA_SEARAD_SW USA_SEARAD_NW STORM_SPEED STORM_DIR
1955333N09084 1955 96 NI BB NOT_NAMED 1955-11-28 18:00:00 TS 9.10000 83.9000 main 281 271 O________O____ jtwc_io IO131955 9.10000 83.9000 -1 9.10000 83.9000 TC 2 295
1955333N09084 1955 96 NI BB NOT_NAMED 1955-11-28 21:00:00 TS 9.13750 83.8175 main 271 267 P________P____ IO131955 9.13750 83.8175 -1 9.13750 83.8175 TC 2 297
1955333N09084 1955 96 NI BB NOT_NAMED 1955-11-29 00:00:00 TS 9.20000 83.7000 main 267 251 O________O____ jtwc_io IO131955 9.20000 83.7000 -1 9.20000 83.7000 TC 25 3 299
1955333N09084 1955 96 NI BB NOT_NAMED 1955-11-29 03:00:00 TS 9.30000 83.5200 main 251 237 P________PO___ IO131955 9.30000 83.5225 -1 9.30000 83.5225 TC 25 9.30000 83.5000 1 4 296
1955333N09084 1955 96 NI BB NOT_NAMED 1955-11-29 06:00:00 TS 9.39691 83.2919 main 237 217 O________OP___ jtwc_io IO131955 9.40000 83.3000 -1 9.40000 83.3000 TC 25 9.38457 83.2595 1 5 288
1955333N09084 1955 96 NI BB NOT_NAMED 1955-11-29 09:00:00 TS 9.45416 83.0432 main 214 197 P________PP___ IO131955 9.45001 83.0500 -1 9.45001 83.0500 TC 25 9.46524 83.0252 1 5 283
1955333N09084 1955 96 NI BB NOT_NAMED 1955-11-29 12:00:00 TS 9.51276 82.8011 main 197 183 O________OP___ jtwc_io IO131955 9.50000 82.8000 -1 9.50000 82.8000 TC 25 9.53829 82.8032 1 5 289
1955333N09084 1955 96 NI BB NOT_NAMED 1955-11-29 15:00:00 TS 9.60498 82.5950 main 183 172 P________PO___ IO131955 9.60747 82.5925 -1 9.60747 82.5925 TC 30 9.60000 82.6000 1 4 294
1955333N09084 1955 96 NI BB NOT_NAMED 1955-11-29 18:00:00 TS 9.68296 82.4057 main 172 156 O________OP___ jtwc_io IO131955 9.70000 82.4000 -1 9.70000 82.4000 TC 35 9.64889 82.4171 1 4 284
1955333N09084 1955 96 NI BB NOT_NAMED 1955-11-29 21:00:00 TS 9.69739 82.2174 main 156 138 P________PP___ IO131955 9.69997 82.2074 -1 9.69997 82.2074 TC 50 9.69223 82.2373 1 4 274
1955333N09084 1955 96 NI BB NOT_NAMED 1955-11-30 00:00:00 TS 9.71316 82.0130 main 138 123 O________OP___ jtwc_io IO131955 9.70000 82.0000 -1 9.70000 82.0000 TC 65 9.73947 82.0389 1 4 282
1955333N09084 1955 96 NI BB NOT_NAMED 1955-11-30 03:00:00 TS 9.78997 81.7817 main 123 102 P________PO___ IO131955 9.78496 81.7725 -1 9.78496 81.7725 TC 65 9.80000 81.8000 4 5 290
1955333N09084 1955 96 NI BB NOT_NAMED 1955-11-30 06:00:00 TS 9.89927 81.5005 main 102 89 O________OP___ jtwc_io IO131955 9.90000 81.5000 -1 9.90000 81.5000 TC 65 9.89782 81.5014 4 6 289
1955333N09084 1955 96 NI BB NOT_NAMED 1955-11-30 09:00:00 TS 10.0025 81.1684 main 89 70 P________PP___ IO131955 9.99998 81.1725 -1 9.99998 81.1725 TC 65 10.0075 81.1602 4 7 286
1955333N09084 1955 96 NI BB NOT_NAMED 1955-11-30 12:00:00 TS 10.1045 80.7963 main 70 55 O________OP___ jtwc_io IO131955 10.1000 80.8000 -1 10.1000 80.8000 TC 65 10.1134 80.7889 4 8 285
1955333N09084 1955 96 NI BB NOT_NAMED 1955-11-30 15:00:00 TS 10.2100 80.4050 main 55 10 P________PO___ IO131955 10.2150 80.4075 -1 10.2150 80.4075 TC 50 10.2000 80.4000 4 8 283
1955333N09084 1955 96 NI BB NOT_NAMED 1955-11-30 18:00:00 TS 10.2823 80.0017 main 10 0 O________OP___ jtwc_io IO131955 10.3000 80.0000 -1 10.3000 80.0000 TC 35 10.2558 80.0043 4 8 277
1955333N09084 1955 96 NI BB NOT_NAMED 1955-11-30 21:00:00 TS 10.3052 79.6006 main 11 0 P________PP___ IO131955 10.3201 79.5975 -1 10.3201 79.5975 TC 30 10.2853 79.6049 4 8 271
1955333N09084 1955 96 NI BB NOT_NAMED 1955-12-01 00:00:00 TS 10.2986 79.2015 main 0 0 O________OP___ jtwc_io IO131955 10.3000 79.2000 -1 10.3000 79.2000 TC 25 10.2972 79.2030 4 8 270
1955333N09084 1955 96 NI BB NOT_NAMED 1955-12-01 03:00:00 NR 10.3000 78.8000 main 0 __________O___ IO131955 -1 TC 10.3000 78.8000 1 8 270

IBTrACS Databaseについて

本データベースは、米国NOAAが公開する1842年以降の世界の熱帯低気圧のベストトラックデータアーカイブInternational Best Track Archive for Climate Stewardship (IBTrACS)を、ウェブで閲覧しやすい形式に変換したものです。

最終更新日:2021-11-26